Time;durP1;ratioP1;P1;durP2;ratioP2;P2;SDS_P1;SDS_P2;PMS_P1;PMS_P2;Temp;Humidity;BMP_temperature;BMP_pressure;BME280_temperature;BME280_humidity;BME280_pressure;Samples;Min_cycle;Max_cycle;Signal;HPM_P1;HPM_P2
2023/04/11 00:01:52;;;;;;;4.18;3.78;;;;;;;;;;5064917;28;20058;-68
2023/04/11 00:04:19;;;;;;;5.35;3.72;;;;;;;;;;5065315;28;20115;-68
2023/04/11 00:06:46;;;;;;;5.38;3.85;;;;;;;;;;5067364;28;20107;-68
2023/04/11 00:09:11;;;;;;;3.97;3.67;;;;;;;;;;5069944;28;20036;-68
2023/04/11 00:11:37;;;;;;;4.78;4.30;;;;;;;;;;5069878;28;20057;-68
2023/04/11 00:14:04;;;;;;;4.32;3.88;;;;;;;;;;5070504;28;20040;-69
2023/04/11 00:16:32;;;;;;;5.57;4.05;;;;;;;;;;5071183;28;20184;-69
2023/04/11 00:18:58;;;;;;;4.03;3.80;;;;;;;;;;5067997;28;20076;-69
2023/04/11 00:21:24;;;;;;;4.97;4.40;;;;;;;;;;5071282;28;20028;-68
2023/04/11 00:23:54;;;;;;;4.38;4.00;;;;;;;;;;5071309;28;20032;-69
2023/04/11 00:26:20;;;;;;;4.22;3.83;;;;;;;;;;5065280;28;20036;-68
2023/04/11 00:28:46;;;;;;;4.35;4.00;;;;;;;;;;5068461;28;20047;-68
2023/04/11 00:31:12;;;;;;;3.67;3.45;;;;;;;;;;5070583;28;20036;-68
2023/04/11 00:33:38;;;;;;;4.28;3.92;;;;;;;;;;5071458;28;20036;-68
2023/04/11 00:36:03;;;;;;;5.60;3.75;;;;;;;;;;5051700;28;20033;-68
2023/04/11 00:38:30;;;;;;;4.18;3.88;;;;;;;;;;5067713;28;20040;-68
2023/04/11 00:40:55;;;;;;;3.80;3.60;;;;;;;;;;5070026;28;20040;-68
2023/04/11 00:43:21;;;;;;;4.10;3.80;;;;;;;;;;5053491;28;20033;-68
2023/04/11 00:45:46;;;;;;;5.07;3.90;;;;;;;;;;5050677;28;20492;-68
2023/04/11 00:48:12;;;;;;;4.45;3.65;;;;;;;;;;5049569;28;20047;-68
2023/04/11 00:50:40;;;;;;;6.40;3.80;;;;;;;;;;5052827;28;20063;-68
2023/04/11 00:53:07;;;;;;;4.60;3.83;;;;;;;;;;5048690;28;20040;-68
2023/04/11 00:55:33;;;;;;;4.13;3.72;;;;;;;;;;5045333;28;20135;-68
2023/04/11 00:58:00;;;;;;;5.78;4.20;;;;;;;;;;5052389;28;20115;-68
2023/04/11 01:00:27;;;;;;;4.53;3.88;;;;;;;;;;5067968;28;20040;-68
2023/04/11 01:02:53;;;;;;;4.55;3.85;;;;;;;;;;5066111;28;20032;-68
2023/04/11 01:05:19;;;;;;;4.68;4.28;;;;;;;;;;5066534;28;20388;-68
2023/04/11 01:07:49;;;;;;;7.15;4.10;;;;;;;;;;5070497;28;20035;-68
2023/04/11 01:10:15;;;;;;;4.43;4.13;;;;;;;;;;5067496;28;20028;-68
2023/04/11 01:12:42;;;;;;;3.97;3.67;;;;;;;;;;5067910;28;20377;-68
2023/04/11 01:15:08;;;;;;;4.82;3.90;;;;;;;;;;5068851;28;20098;-68
2023/04/11 01:17:34;;;;;;;5.03;3.90;;;;;;;;;;5069273;28;20403;-68
2023/04/11 01:19:59;;;;;;;4.07;3.67;;;;;;;;;;5051973;28;20105;-69
2023/04/11 01:22:26;;;;;;;4.10;3.80;;;;;;;;;;5047514;28;20024;-68
2023/04/11 01:24:52;;;;;;;3.92;3.63;;;;;;;;;;5051750;28;20104;-69
2023/04/11 01:27:19;;;;;;;7.07;4.30;;;;;;;;;;5051314;28;20039;-68
2023/04/11 01:29:44;;;;;;;3.50;3.30;;;;;;;;;;5052580;28;20028;-69
2023/04/11 01:32:10;;;;;;;3.88;3.63;;;;;;;;;;5049191;28;20036;-68
2023/04/11 01:34:40;;;;;;;4.55;3.78;;;;;;;;;;5054176;28;20036;-68
2023/04/11 01:37:07;;;;;;;4.38;3.95;;;;;;;;;;5069230;28;20028;-68
2023/04/11 01:39:33;;;;;;;3.88;3.65;;;;;;;;;;5052419;28;20108;-69
2023/04/11 01:42:01;;;;;;;4.05;3.75;;;;;;;;;;5046547;28;20131;-68
2023/04/11 01:44:27;;;;;;;4.60;4.00;;;;;;;;;;5068674;28;20110;-68
2023/04/11 01:46:54;;;;;;;4.35;3.88;;;;;;;;;;5052956;28;20064;-68
2023/04/11 01:49:23;;;;;;;6.18;4.00;;;;;;;;;;5064772;28;20102;-68
2023/04/11 01:51:48;;;;;;;6.03;4.30;;;;;;;;;;5048066;28;20086;-69
2023/04/11 01:54:14;;;;;;;4.40;4.10;;;;;;;;;;5052570;28;20041;-68
2023/04/11 01:56:40;;;;;;;4.50;4.10;;;;;;;;;;5050125;28;20032;-67
2023/04/11 01:59:05;;;;;;;4.72;3.90;;;;;;;;;;5051317;28;20040;-68
2023/04/11 02:01:31;;;;;;;6.35;4.25;;;;;;;;;;5051884;28;20032;-68
2023/04/11 02:03:56;;;;;;;4.20;3.90;;;;;;;;;;5052085;28;20107;-68
2023/04/11 02:06:22;;;;;;;4.30;4.00;;;;;;;;;;5049450;28;20528;-68
2023/04/11 02:08:47;;;;;;;5.07;4.20;;;;;;;;;;5065257;28;20028;-68
2023/04/11 02:11:13;;;;;;;4.28;3.92;;;;;;;;;;5051467;28;20036;-68
2023/04/11 02:13:39;;;;;;;5.30;3.85;;;;;;;;;;5046019;28;20461;-68
2023/04/11 02:16:10;;;;;;;6.05;4.05;;;;;;;;;;5067273;28;20699;-68
2023/04/11 02:18:36;;;;;;;4.25;4.03;;;;;;;;;;5065915;28;20044;-68
2023/04/11 02:21:02;;;;;;;4.68;4.07;;;;;;;;;;5046798;28;20488;-69
2023/04/11 02:23:28;;;;;;;4.88;4.40;;;;;;;;;;5068150;28;20472;-68
2023/04/11 02:25:54;;;;;;;5.63;4.30;;;;;;;;;;5048251;28;20043;-69
2023/04/11 02:28:21;;;;;;;5.32;4.75;;;;;;;;;;5068908;28;20040;-69
2023/04/11 02:30:47;;;;;;;5.63;4.38;;;;;;;;;;5055270;28;20028;-69
2023/04/11 02:33:13;;;;;;;4.22;4.00;;;;;;;;;;5049591;28;20111;-69
2023/04/11 02:35:39;;;;;;;4.63;4.32;;;;;;;;;;5066324;28;20036;-69
2023/04/11 02:38:05;;;;;;;5.43;4.95;;;;;;;;;;5047417;28;20036;-69
2023/04/11 02:40:30;;;;;;;5.05;4.10;;;;;;;;;;5051034;28;20039;-68
2023/04/11 02:42:56;;;;;;;5.30;4.78;;;;;;;;;;5063833;28;20068;-69
2023/04/11 02:45:21;;;;;;;4.90;4.60;;;;;;;;;;5067500;28;20078;-68
2023/04/11 02:47:47;;;;;;;4.05;3.78;;;;;;;;;;5045863;28;20617;-68
2023/04/11 02:50:13;;;;;;;7.15;4.45;;;;;;;;;;5044672;28;20082;-68
2023/04/11 02:52:46;;;;;;;4.55;4.20;;;;;;;;;;5048843;28;20051;-68
2023/04/11 02:55:12;;;;;;;4.60;4.28;;;;;;;;;;5052601;28;20744;-68
2023/04/11 02:57:38;;;;;;;4.70;4.40;;;;;;;;;;5049911;28;20104;-67
2023/04/11 03:00:07;;;;;;;5.65;4.60;;;;;;;;;;5050032;28;20032;-68
2023/04/11 03:02:43;;;;;;;4.80;4.28;;;;;;;;;;5048942;28;20029;-67
2023/04/11 03:05:09;;;;;;;4.53;4.20;;;;;;;;;;5049169;28;20036;-67
2023/04/11 03:07:39;;;;;;;4.53;4.20;;;;;;;;;;5042843;28;20032;-67
2023/04/11 03:10:05;;;;;;;4.38;4.03;;;;;;;;;;5052806;28;20040;-67
2023/04/11 03:12:33;;;;;;;5.93;4.22;;;;;;;;;;5048694;28;20040;-67
2023/04/11 03:15:02;;;;;;;4.47;4.15;;;;;;;;;;5048899;28;20397;-67
2023/04/11 03:17:28;;;;;;;4.70;4.40;;;;;;;;;;5048728;28;20094;-67
2023/04/11 03:19:55;;;;;;;5.15;4.22;;;;;;;;;;5050413;28;20654;-67
2023/04/11 03:22:22;;;;;;;4.57;4.18;;;;;;;;;;5051156;28;20028;-67
2023/04/11 03:24:48;;;;;;;4.30;4.00;;;;;;;;;;5047613;28;20476;-67
2023/04/11 03:27:14;;;;;;;4.82;4.40;;;;;;;;;;5046957;28;20036;-67
2023/04/11 03:29:42;;;;;;;4.90;4.60;;;;;;;;;;5048892;28;20090;-67
2023/04/11 03:32:16;;;;;;;5.40;5.00;;;;;;;;;;5047446;28;20541;-67
2023/04/11 03:34:41;;;;;;;5.20;4.70;;;;;;;;;;5046058;28;20037;-67
2023/04/11 03:37:09;;;;;;;7.15;4.80;;;;;;;;;;5044544;28;20071;-66
2023/04/11 03:39:37;;;;;;;5.10;4.70;;;;;;;;;;5050172;28;20075;-66
2023/04/11 03:42:02;;;;;;;4.78;4.35;;;;;;;;;;5048698;28;20063;-67
2023/04/11 03:44:29;;;;;;;5.38;4.93;;;;;;;;;;5048261;28;20031;-67
2023/04/11 03:46:56;;;;;;;5.22;4.93;;;;;;;;;;5052726;28;20595;-67
2023/04/11 03:49:27;;;;;;;7.97;5.28;;;;;;;;;;5052304;28;20028;-67
2023/04/11 03:51:55;;;;;;;5.47;5.00;;;;;;;;;;5049830;28;20044;-67
2023/04/11 03:54:21;;;;;;;5.30;5.00;;;;;;;;;;5047813;28;20037;-67
2023/04/11 03:56:46;;;;;;;5.63;5.13;;;;;;;;;;5052156;28;20112;-67
2023/04/11 03:59:18;;;;;;;5.75;5.30;;;;;;;;;;5048983;28;20039;-67
2023/04/11 04:01:51;;;;;;;5.70;4.93;;;;;;;;;;5054364;28;20048;-67
2023/04/11 04:04:16;;;;;;;5.43;5.03;;;;;;;;;;5070154;28;20154;-67
2023/04/11 04:06:47;;;;;;;7.40;5.10;;;;;;;;;;5049651;28;20036;-67
2023/04/11 04:09:13;;;;;;;5.10;4.80;;;;;;;;;;5052493;28;20028;-67
2023/04/11 04:11:49;;;;;;;4.63;4.32;;;;;;;;;;5057066;28;20036;-67
2023/04/11 04:14:17;;;;;;;8.05;7.43;;;;;;;;;;5053910;28;20507;-67
2023/04/11 04:16:43;;;;;;;7.50;7.00;;;;;;;;;;5067680;28;20033;-66
2023/04/11 04:19:10;;;;;;;7.93;7.10;;;;;;;;;;5048998;28;20040;-67
2023/04/11 04:21:40;;;;;;;7.10;6.67;;;;;;;;;;5055248;28;20048;-67
2023/04/11 04:24:06;;;;;;;7.75;7.07;;;;;;;;;;5054803;28;20290;-67
2023/04/11 04:27:12;;;;;;;7.18;6.57;;;;;;;;;;5050370;28;20032;-67
2023/04/11 04:29:45;;;;;;;7.53;6.68;;;;;;;;;;5050545;28;20045;-68
2023/04/11 04:32:19;;;;;;;7.40;6.88;;;;;;;;;;5051795;28;20048;-67
2023/04/11 04:34:53;;;;;;;7.10;6.60;;;;;;;;;;5069116;28;20075;-67
2023/04/11 04:37:25;;;;;;;7.55;6.97;;;;;;;;;;5050055;28;20040;-67
2023/04/11 04:40:12;;;;;;;7.28;6.57;;;;;;;;;;5048861;28;20444;-67
2023/04/11 04:42:56;;;;;;;7.50;6.78;;;;;;;;;;5050696;28;20438;-67
2023/04/11 04:45:27;;;;;;;7.78;6.72;;;;;;;;;;5050166;28;20032;-67
2023/04/11 04:47:53;;;;;;;7.43;6.82;;;;;;;;;;5048377;28;20094;-67
2023/04/11 04:50:19;;;;;;;7.25;6.68;;;;;;;;;;5067323;28;20047;-67
2023/04/11 04:52:45;;;;;;;7.32;6.72;;;;;;;;;;5064056;28;20445;-66
2023/04/11 04:55:11;;;;;;;7.45;6.80;;;;;;;;;;5048536;28;20036;-66
2023/04/11 04:57:37;;;;;;;7.13;6.63;;;;;;;;;;5052927;28;20036;-65
2023/04/11 05:00:10;;;;;;;7.45;6.78;;;;;;;;;;5045461;28;20044;-66
2023/04/11 05:02:37;;;;;;;6.88;6.40;;;;;;;;;;5049004;28;20040;-66
2023/04/11 05:05:03;;;;;;;6.68;6.28;;;;;;;;;;5068290;28;20036;-66
2023/04/11 05:07:29;;;;;;;7.00;6.50;;;;;;;;;;5051456;28;20035;-66
2023/04/11 05:09:55;;;;;;;6.88;6.47;;;;;;;;;;5045897;28;20054;-66
2023/04/11 05:12:26;;;;;;;6.82;6.43;;;;;;;;;;5047912;28;20107;-66
2023/04/11 05:14:55;;;;;;;6.90;6.40;;;;;;;;;;5050542;28;20045;-66
2023/04/11 05:17:22;;;;;;;7.10;6.53;;;;;;;;;;5047900;28;20055;-65
2023/04/11 05:19:48;;;;;;;7.10;6.60;;;;;;;;;;5064693;28;20518;-65
2023/04/11 05:22:14;;;;;;;6.53;6.13;;;;;;;;;;5052620;28;20068;-66
2023/04/11 05:24:45;;;;;;;6.55;6.15;;;;;;;;;;5051057;28;20028;-65
2023/04/11 05:27:12;;;;;;;7.57;7.00;;;;;;;;;;5046766;28;20044;-65
2023/04/11 05:29:38;;;;;;;7.20;6.60;;;;;;;;;;5050687;28;20036;-65
2023/04/11 05:32:04;;;;;;;7.47;6.90;;;;;;;;;;5050785;28;20036;-65
2023/04/11 05:34:32;;;;;;;7.22;6.68;;;;;;;;;;5044666;28;20050;-65
2023/04/11 05:36:57;;;;;;;7.40;6.80;;;;;;;;;;5042036;28;20037;-65
2023/04/11 05:39:23;;;;;;;6.72;6.43;;;;;;;;;;5041511;28;20397;-66
2023/04/11 05:41:49;;;;;;;6.93;6.32;;;;;;;;;;5047887;28;20458;-66
2023/04/11 05:44:14;;;;;;;6.70;6.30;;;;;;;;;;5048892;28;20058;-66
2023/04/11 05:46:40;;;;;;;6.80;6.30;;;;;;;;;;5063692;28;20115;-65
2023/04/11 05:49:07;;;;;;;6.75;6.28;;;;;;;;;;5071134;28;20405;-65
2023/04/11 05:51:32;;;;;;;6.97;6.40;;;;;;;;;;5051443;28;20508;-66
2023/04/11 05:53:58;;;;;;;7.75;6.43;;;;;;;;;;5051732;28;20035;-66
2023/04/11 05:56:24;;;;;;;6.13;5.82;;;;;;;;;;5064085;28;20543;-66
2023/04/11 05:58:49;;;;;;;6.70;6.20;;;;;;;;;;5071292;28;20036;-66
2023/04/11 06:01:18;;;;;;;6.75;6.35;;;;;;;;;;5066033;28;20036;-66
2023/04/11 06:03:47;;;;;;;7.05;6.65;;;;;;;;;;5060946;28;20114;-66
2023/04/11 06:06:12;;;;;;;6.88;6.32;;;;;;;;;;5062910;28;20063;-66
2023/04/11 06:08:38;;;;;;;11.57;6.90;;;;;;;;;;5063231;28;20036;-66
2023/04/11 06:11:04;;;;;;;7.00;6.40;;;;;;;;;;5069334;28;20028;-66
2023/04/11 06:13:29;;;;;;;7.15;6.55;;;;;;;;;;5064770;28;20131;-66
2023/04/11 06:15:55;;;;;;;6.80;6.40;;;;;;;;;;5062245;28;20072;-66
2023/04/11 06:18:21;;;;;;;6.82;6.28;;;;;;;;;;5060135;28;20408;-66
2023/04/11 06:20:48;;;;;;;8.07;6.38;;;;;;;;;;5063112;28;20036;-66
2023/04/11 06:23:14;;;;;;;7.00;6.30;;;;;;;;;;5067400;28;20036;-66
2023/04/11 06:25:39;;;;;;;6.63;6.22;;;;;;;;;;5063700;28;20031;-66
2023/04/11 06:28:05;;;;;;;6.30;5.95;;;;;;;;;;5058094;28;20055;-66
2023/04/11 06:30:31;;;;;;;6.30;5.90;;;;;;;;;;5065263;28;20158;-66
2023/04/11 06:32:57;;;;;;;6.85;6.20;;;;;;;;;;5063143;28;20522;-66
2023/04/11 06:35:26;;;;;;;6.13;5.70;;;;;;;;;;5068844;28;20041;-66
2023/04/11 06:37:51;;;;;;;7.72;6.35;;;;;;;;;;5065563;28;20029;-66
2023/04/11 06:40:19;;;;;;;6.60;6.20;;;;;;;;;;5062641;28;20090;-66
2023/04/11 06:42:45;;;;;;;6.97;6.30;;;;;;;;;;5066007;28;20036;-66
2023/04/11 06:45:11;;;;;;;6.55;6.10;;;;;;;;;;5064325;28;20044;-66
2023/04/11 06:47:37;;;;;;;6.53;6.03;;;;;;;;;;5069012;28;20506;-66
2023/04/11 06:50:03;;;;;;;6.25;5.85;;;;;;;;;;5068779;28;20047;-66
2023/04/11 06:52:29;;;;;;;7.75;6.47;;;;;;;;;;5063434;28;20029;-65
2023/04/11 06:54:55;;;;;;;6.20;5.80;;;;;;;;;;5067880;28;20028;-65
2023/04/11 06:57:20;;;;;;;7.28;6.68;;;;;;;;;;5067709;28;20086;-66
2023/04/11 06:59:46;;;;;;;6.70;6.20;;;;;;;;;;5066298;28;20057;-65
2023/04/11 07:02:11;;;;;;;5.72;5.32;;;;;;;;;;5049854;28;20032;-66
2023/04/11 07:04:37;;;;;;;6.43;5.93;;;;;;;;;;5072030;28;20028;-65
2023/04/11 07:07:03;;;;;;;6.60;6.10;;;;;;;;;;5068419;28;20082;-66
2023/04/11 07:09:29;;;;;;;6.28;5.82;;;;;;;;;;5067538;28;20032;-67
2023/04/11 07:11:55;;;;;;;6.43;5.90;;;;;;;;;;5067431;28;20040;-66
2023/04/11 07:14:20;;;;;;;7.63;6.43;;;;;;;;;;5064534;28;20029;-65
2023/04/11 07:16:46;;;;;;;7.15;6.63;;;;;;;;;;5066239;28;20044;-66
2023/04/11 07:19:12;;;;;;;9.32;6.63;;;;;;;;;;5066063;28;20028;-65
2023/04/11 07:21:37;;;;;;;6.50;5.80;;;;;;;;;;5071952;28;20032;-66
2023/04/11 07:24:05;;;;;;;6.60;6.20;;;;;;;;;;5069341;28;20040;-65
2023/04/11 07:26:31;;;;;;;6.88;6.38;;;;;;;;;;5067420;28;20115;-67
2023/04/11 07:28:57;;;;;;;9.00;6.00;;;;;;;;;;5065325;28;20092;-67
2023/04/11 07:31:23;;;;;;;6.57;5.97;;;;;;;;;;5067261;28;20098;-67
2023/04/11 07:33:50;;;;;;;6.53;6.00;;;;;;;;;;5067049;28;20476;-67
2023/04/11 07:36:15;;;;;;;6.18;5.78;;;;;;;;;;5061884;28;20036;-67
2023/04/11 07:38:41;;;;;;;6.35;5.75;;;;;;;;;;5067023;28;20034;-68
2023/04/11 07:41:08;;;;;;;8.30;6.25;;;;;;;;;;5067557;28;20040;-67
2023/04/11 07:43:33;;;;;;;5.93;5.45;;;;;;;;;;5065312;28;20086;-67
2023/04/11 07:45:59;;;;;;;6.10;5.70;;;;;;;;;;5064356;28;20040;-67
2023/04/11 07:48:26;;;;;;;6.10;5.70;;;;;;;;;;5067634;28;20039;-67
2023/04/11 07:50:53;;;;;;;6.28;5.68;;;;;;;;;;5063096;28;20036;-67
2023/04/11 07:53:19;;;;;;;6.07;5.68;;;;;;;;;;5065531;28;20113;-67
2023/04/11 07:55:45;;;;;;;6.38;5.78;;;;;;;;;;5069072;28;20054;-67
2023/04/11 07:58:10;;;;;;;6.82;6.22;;;;;;;;;;5069943;28;20168;-67
2023/04/11 08:00:36;;;;;;;6.30;5.80;;;;;;;;;;5067221;28;20215;-67
2023/04/11 08:03:06;;;;;;;6.30;5.80;;;;;;;;;;5063468;28;20029;-67
2023/04/11 08:05:33;;;;;;;5.90;5.40;;;;;;;;;;5057870;28;20976;-67
2023/04/11 08:07:59;;;;;;;6.15;5.65;;;;;;;;;;5067085;28;20071;-66
2023/04/11 08:10:25;;;;;;;6.00;5.50;;;;;;;;;;5066905;28;20170;-66
2023/04/11 08:12:51;;;;;;;6.20;5.00;;;;;;;;;;5046257;28;20119;-66
2023/04/11 08:15:17;;;;;;;5.18;4.70;;;;;;;;;;5061780;28;20040;-67
2023/04/11 08:17:44;;;;;;;6.32;4.45;;;;;;;;;;5066434;28;20028;-66
2023/04/11 08:20:10;;;;;;;5.90;4.70;;;;;;;;;;5062959;28;20128;-67
2023/04/11 08:22:43;;;;;;;9.48;4.70;;;;;;;;;;5059945;28;20033;-67
2023/04/11 08:25:10;;;;;;;8.07;5.03;;;;;;;;;;5065638;28;20480;-67
2023/04/11 08:27:39;;;;;;;8.30;4.60;;;;;;;;;;5065601;28;20224;-67
2023/04/11 08:30:07;;;;;;;5.38;4.53;;;;;;;;;;5068496;28;20036;-67
2023/04/11 08:32:33;;;;;;;5.50;4.10;;;;;;;;;;5062950;28;20100;-67
2023/04/11 08:34:59;;;;;;;7.60;4.40;;;;;;;;;;5068908;28;20047;-66
2023/04/11 08:37:25;;;;;;;8.27;4.85;;;;;;;;;;5069684;28;20037;-67
2023/04/11 08:39:50;;;;;;;6.90;4.43;;;;;;;;;;5068241;28;20040;-67
2023/04/11 08:42:29;;;;;;;5.50;4.45;;;;;;;;;;5065522;28;20488;-66
2023/04/11 08:44:57;;;;;;;8.00;5.20;;;;;;;;;;5071959;28;20032;-67
2023/04/11 08:47:23;;;;;;;6.00;4.60;;;;;;;;;;5067454;28;20039;-67
2023/04/11 08:49:49;;;;;;;6.40;4.60;;;;;;;;;;5069147;28;20044;-67
2023/04/11 08:52:16;;;;;;;6.63;4.60;;;;;;;;;;5070548;28;20404;-67
2023/04/11 08:54:42;;;;;;;5.57;4.57;;;;;;;;;;5069300;28;20100;-67
2023/04/11 08:57:07;;;;;;;7.70;4.70;;;;;;;;;;5072097;28;20514;-66
2023/04/11 08:59:33;;;;;;;6.88;4.53;;;;;;;;;;5068397;28;20049;-66
2023/04/11 09:02:08;;;;;;;5.90;3.92;;;;;;;;;;5072274;28;20045;-66
2023/04/11 09:04:41;;;;;;;9.60;4.40;;;;;;;;;;5071050;28;20518;-66
2023/04/11 09:07:07;;;;;;;9.95;4.90;;;;;;;;;;5066002;28;20043;-68
2023/04/11 09:09:35;;;;;;;6.63;4.50;;;;;;;;;;5071015;28;20036;-68
2023/04/11 09:12:02;;;;;;;8.05;4.43;;;;;;;;;;5052031;28;20436;-66
2023/04/11 09:14:29;;;;;;;4.53;4.07;;;;;;;;;;5070362;28;20066;-68
2023/04/11 09:17:00;;;;;;;7.63;4.53;;;;;;;;;;5069488;28;20090;-67
2023/04/11 09:19:28;;;;;;;5.95;4.10;;;;;;;;;;5071897;28;20028;-68
2023/04/11 09:22:00;;;;;;;4.88;3.83;;;;;;;;;;5073709;28;20496;-67
2023/04/11 09:24:27;;;;;;;6.35;4.30;;;;;;;;;;5068664;28;20387;-67
2023/04/11 09:27:18;;;;;;;5.50;4.30;;;;;;;;;;5068843;28;20035;-67
2023/04/11 09:29:47;;;;;;;4.70;3.97;;;;;;;;;;5071457;28;20133;-67
2023/04/11 09:32:32;;;;;;;;;;;;;;;;;;5071199;28;20044;-67
2023/04/11 09:35:19;;;;;;;10.48;4.07;;;;;;;;;;5063544;28;19951;-67
2023/04/11 09:37:47;;;;;;;7.45;4.20;;;;;;;;;;5064148;28;20090;-67
2023/04/11 09:40:15;;;;;;;6.93;4.27;;;;;;;;;;5067025;28;20039;-67
2023/04/11 09:42:41;;;;;;;6.50;4.60;;;;;;;;;;5062622;28;20120;-67
2023/04/11 09:45:21;;;;;;;4.60;4.03;;;;;;;;;;5066824;28;20071;-67
2023/04/11 09:47:48;;;;;;;5.40;3.90;;;;;;;;;;5067727;28;20404;-67
2023/04/11 09:50:15;;;;;;;8.98;4.20;;;;;;;;;;5068529;28;20063;-67
2023/04/11 09:52:42;;;;;;;6.88;4.07;;;;;;;;;;5061212;28;20036;-67
2023/04/11 09:55:11;;;;;;;4.68;4.18;;;;;;;;;;5068944;28;20146;-68
2023/04/11 09:57:40;;;;;;;7.63;3.97;;;;;;;;;;5068150;28;20020;-68
2023/04/11 10:00:15;;;;;;;;;;;;;;;;;;5070191;28;20549;-67
2023/04/11 10:02:43;;;;;;;6.78;4.15;;;;;;;;;;5061407;28;20000;-67
2023/04/11 10:05:09;;;;;;;8.77;4.43;;;;;;;;;;5068834;28;20063;-67
2023/04/11 10:08:04;;;;;;;4.47;3.80;;;;;;;;;;5068454;28;20039;-67
2023/04/11 10:10:31;;;;;;;4.90;4.38;;;;;;;;;;5065720;28;20036;-67
2023/04/11 10:12:57;;;;;;;10.43;5.00;;;;;;;;;;5069115;28;20117;-67
2023/04/11 10:15:23;;;;;;;7.15;4.60;;;;;;;;;;5065360;28;20072;-67
2023/04/11 10:18:11;;;;;;;6.45;4.10;;;;;;;;;;5067618;28;20033;-67
2023/04/11 10:20:48;;;;;;;7.35;4.35;;;;;;;;;;5063986;28;20036;-67
2023/04/11 10:23:15;;;;;;;6.93;3.80;;;;;;;;;;5067569;28;20028;-68
2023/04/11 10:25:51;;;;;;;7.38;3.83;;;;;;;;;;5068543;28;20036;-68
2023/04/11 10:28:37;;;;;;;6.70;3.88;;;;;;;;;;5064597;28;20094;-68
2023/04/11 10:31:08;;;;;;;6.15;3.88;;;;;;;;;;5064437;28;20554;-67
2023/04/11 10:33:36;;;;;;;3.67;3.40;;;;;;;;;;5066317;28;20068;-67
2023/04/11 10:36:09;;;;;;;9.35;3.80;;;;;;;;;;5067089;28;20045;-68
2023/04/11 10:38:50;;;;;;;8.93;4.00;;;;;;;;;;5064056;28;20024;-68
2023/04/11 10:41:24;;;;;;;5.82;3.58;;;;;;;;;;5069429;28;20059;-67
2023/04/11 10:43:50;;;;;;;8.73;4.10;;;;;;;;;;5066073;28;20056;-67
2023/04/11 10:46:18;;;;;;;4.78;3.70;;;;;;;;;;5070913;28;20476;-67
2023/04/11 10:49:03;;;;;;;4.38;3.88;;;;;;;;;;5068053;28;20025;-67
2023/04/11 10:51:31;;;;;;;5.15;4.07;;;;;;;;;;5064006;28;20056;-67
2023/04/11 10:53:58;;;;;;;8.43;4.47;;;;;;;;;;5059657;28;20122;-67
2023/04/11 10:56:56;;;;;;;4.50;4.10;;;;;;;;;;5067187;28;20063;-67
2023/04/11 10:59:31;;;;;;;4.93;4.18;;;;;;;;;;4991730;28;20034;-67
2023/04/11 11:02:00;;;;;;;7.18;4.20;;;;;;;;;;4990283;28;20058;-68
2023/04/11 11:04:33;;;;;;;6.55;4.10;;;;;;;;;;4992037;28;20042;-68
2023/04/11 11:07:00;;;;;;;5.50;4.20;;;;;;;;;;4994796;28;20107;-68
2023/04/11 11:09:27;;;;;;;6.80;4.35;;;;;;;;;;4990210;28;20078;-68
2023/04/11 11:12:12;;;;;;;5.90;3.90;;;;;;;;;;4994176;28;20037;-67
2023/04/11 11:14:40;;;;;;;4.95;3.90;;;;;;;;;;4994655;28;20034;-68
2023/04/11 11:17:07;;;;;;;4.43;3.95;;;;;;;;;;4995356;28;20050;-69
2023/04/11 11:19:34;;;;;;;5.22;3.83;;;;;;;;;;4989477;28;20489;-66
2023/04/11 11:22:02;;;;;;;6.05;3.75;;;;;;;;;;4993821;28;20073;-67
2023/04/11 11:24:28;;;;;;;6.32;3.97;;;;;;;;;;4990807;28;20125;-68
2023/04/11 11:26:55;;;;;;;6.30;4.13;;;;;;;;;;4994287;28;20128;-66
2023/04/11 11:29:47;;;;;;;10.32;4.30;;;;;;;;;;4989448;28;20109;-67
2023/04/11 11:32:31;;;;;;;7.68;4.00;;;;;;;;;;4990608;28;20061;-67
2023/04/11 11:34:57;;;;;;;3.92;3.60;;;;;;;;;;5026031;28;20045;-68
2023/04/11 11:37:23;;;;;;;4.30;3.90;;;;;;;;;;5064513;28;20033;-66
2023/04/11 11:39:49;;;;;;;6.13;4.30;;;;;;;;;;5061726;28;20435;-66
2023/04/11 11:42:15;;;;;;;4.68;3.95;;;;;;;;;;5067812;28;20685;-66
2023/04/11 11:44:41;;;;;;;5.85;3.80;;;;;;;;;;5067700;28;20085;-66
2023/04/11 11:47:13;;;;;;;5.95;4.30;;;;;;;;;;5065525;28;20098;-67
2023/04/11 11:49:44;;;;;;;5.05;4.32;;;;;;;;;;5061796;28;20028;-66
2023/04/11 11:52:10;;;;;;;5.45;4.13;;;;;;;;;;5064606;28;20123;-67
2023/04/11 11:54:44;;;;;;;5.32;3.85;;;;;;;;;;5065197;28;20547;-67
2023/04/11 11:57:09;;;;;;;5.78;4.20;;;;;;;;;;5060120;28;20044;-67
2023/04/11 11:59:35;;;;;;;5.82;4.30;;;;;;;;;;5068084;28;20052;-67
2023/04/11 12:02:01;;;;;;;6.50;3.85;;;;;;;;;;5065315;28;20040;-67
2023/04/11 12:04:29;;;;;;;5.13;4.20;;;;;;;;;;5069388;28;20450;-67
2023/04/11 12:06:55;;;;;;;6.82;4.30;;;;;;;;;;5061837;28;20040;-67
2023/04/11 12:09:20;;;;;;;6.55;4.22;;;;;;;;;;5069287;28;20036;-67
2023/04/11 12:11:46;;;;;;;5.85;4.40;;;;;;;;;;5070452;28;20048;-67
2023/04/11 12:14:21;;;;;;;4.78;3.85;;;;;;;;;;5071096;28;20043;-67
2023/04/11 12:16:47;;;;;;;6.30;3.80;;;;;;;;;;5060171;28;20079;-67
2023/04/11 12:19:12;;;;;;;5.22;4.45;;;;;;;;;;5067451;28;20081;-66
2023/04/11 12:21:38;;;;;;;4.78;3.72;;;;;;;;;;5067912;28;20067;-68
2023/04/11 12:24:04;;;;;;;6.15;3.60;;;;;;;;;;5063060;28;20388;-68
2023/04/11 12:26:29;;;;;;;4.40;3.80;;;;;;;;;;5067602;28;20028;-68
2023/04/11 12:28:55;;;;;;;6.68;3.38;;;;;;;;;;5064658;28;20036;-68
2023/04/11 12:31:21;;;;;;;5.68;4.28;;;;;;;;;;5069641;28;20585;-68
2023/04/11 12:33:46;;;;;;;8.25;4.00;;;;;;;;;;5066575;28;20044;-68
2023/04/11 12:36:12;;;;;;;6.18;4.38;;;;;;;;;;5069601;28;20032;-68
2023/04/11 12:38:37;;;;;;;5.80;4.00;;;;;;;;;;5065253;28;20044;-68
2023/04/11 12:41:03;;;;;;;6.90;4.20;;;;;;;;;;5069254;28;20040;-67
2023/04/11 12:43:29;;;;;;;5.25;4.15;;;;;;;;;;5068149;28;20070;-68
2023/04/11 12:45:54;;;;;;;4.80;4.10;;;;;;;;;;5068732;28;20415;-68
2023/04/11 12:48:20;;;;;;;5.57;4.07;;;;;;;;;;5066371;28;20051;-68
2023/04/11 12:50:45;;;;;;;5.47;4.22;;;;;;;;;;5062603;28;20389;-68
2023/04/11 12:53:11;;;;;;;5.45;3.90;;;;;;;;;;5067724;28;20043;-68
2023/04/11 12:55:36;;;;;;;4.53;4.03;;;;;;;;;;5067366;28;20107;-68
2023/04/11 12:58:02;;;;;;;10.38;4.80;;;;;;;;;;5065610;28;20048;-68
2023/04/11 13:00:28;;;;;;;4.65;4.20;;;;;;;;;;5068546;28;20036;-67
2023/04/11 13:02:53;;;;;;;8.52;4.18;;;;;;;;;;5067037;28;20036;-68
2023/04/11 13:05:22;;;;;;;6.97;4.57;;;;;;;;;;5070010;28;20037;-68
2023/04/11 13:07:47;;;;;;;5.90;3.90;;;;;;;;;;5065706;28;20057;-68
2023/04/11 13:10:16;;;;;;;6.05;4.35;;;;;;;;;;5068260;28;20177;-68
2023/04/11 13:12:45;;;;;;;;;;;;;;;;;;5066389;28;20048;-68
2023/04/11 13:15:12;;;;;;;5.97;3.97;;;;;;;;;;5061653;28;20026;-68
2023/04/11 13:17:38;;;;;;;4.60;4.00;;;;;;;;;;5064572;28;20036;-68
2023/04/11 13:20:08;;;;;;;6.28;4.40;;;;;;;;;;5069537;28;20089;-68
2023/04/11 13:22:41;;;;;;;5.35;4.03;;;;;;;;;;5069986;28;20036;-69
2023/04/11 13:25:08;;;;;;;5.20;4.00;;;;;;;;;;5062037;28;20035;-66
2023/04/11 13:27:35;;;;;;;5.55;3.90;;;;;;;;;;5067464;28;20560;-68
2023/04/11 13:30:01;;;;;;;6.32;4.10;;;;;;;;;;5068208;28;20554;-69
2023/04/11 13:32:26;;;;;;;5.75;3.88;;;;;;;;;;5062654;28;20071;-68
2023/04/11 13:34:52;;;;;;;5.93;3.70;;;;;;;;;;5068464;28;20472;-67
2023/04/11 13:37:17;;;;;;;5.18;4.22;;;;;;;;;;5066301;28;20032;-68
2023/04/11 13:39:43;;;;;;;5.25;4.03;;;;;;;;;;5069072;28;20044;-68
2023/04/11 13:42:09;;;;;;;7.03;4.50;;;;;;;;;;5063749;28;20036;-68
2023/04/11 13:44:35;;;;;;;6.32;4.60;;;;;;;;;;5067644;28;20028;-68
2023/04/11 13:47:02;;;;;;;4.55;4.00;;;;;;;;;;5067336;28;20345;-68
2023/04/11 13:49:27;;;;;;;6.18;3.75;;;;;;;;;;5061953;28;20051;-68
2023/04/11 13:51:53;;;;;;;4.72;4.32;;;;;;;;;;5065691;28;20028;-67
2023/04/11 13:54:18;;;;;;;7.63;4.32;;;;;;;;;;5069262;28;20064;-67
2023/04/11 13:56:44;;;;;;;4.72;4.18;;;;;;;;;;5065836;28;20373;-67
2023/04/11 13:59:10;;;;;;;4.97;4.20;;;;;;;;;;5063220;28;20044;-67
2023/04/11 14:01:36;;;;;;;5.57;4.15;;;;;;;;;;5066589;28;20056;-67
2023/04/11 14:04:02;;;;;;;4.50;4.10;;;;;;;;;;5069253;28;20508;-67
2023/04/11 14:06:27;;;;;;;7.22;4.32;;;;;;;;;;5067275;28;20060;-67
2023/04/11 14:08:53;;;;;;;4.20;3.90;;;;;;;;;;5064146;28;20032;-67
2023/04/11 14:11:19;;;;;;;6.15;4.03;;;;;;;;;;5067621;28;20028;-67
2023/04/11 14:13:45;;;;;;;4.68;4.13;;;;;;;;;;5067775;28;20068;-67
2023/04/11 14:16:11;;;;;;;4.72;4.10;;;;;;;;;;5063936;28;20113;-67
2023/04/11 14:18:36;;;;;;;6.07;4.20;;;;;;;;;;5058132;28;20045;-67
2023/04/11 14:21:04;;;;;;;5.05;4.07;;;;;;;;;;5068980;28;20035;-67
2023/04/11 14:23:30;;;;;;;6.30;3.75;;;;;;;;;;5065285;28;20519;-67
2023/04/11 14:25:56;;;;;;;4.82;3.60;;;;;;;;;;5065798;28;20119;-67
2023/04/11 14:28:21;;;;;;;5.82;4.18;;;;;;;;;;5058520;28;20119;-67
2023/04/11 14:30:47;;;;;;;4.88;4.28;;;;;;;;;;5066602;28;20036;-67
2023/04/11 14:33:12;;;;;;;6.10;4.10;;;;;;;;;;5056578;28;20430;-67
2023/04/11 14:35:38;;;;;;;5.07;4.07;;;;;;;;;;5064998;28;20044;-67
2023/04/11 14:38:04;;;;;;;4.43;3.80;;;;;;;;;;5067124;28;20032;-67
2023/04/11 14:40:30;;;;;;;4.30;3.90;;;;;;;;;;5064555;28;20395;-66
2023/04/11 14:42:58;;;;;;;4.65;4.00;;;;;;;;;;5060004;28;20051;-67
2023/04/11 14:45:24;;;;;;;4.97;3.97;;;;;;;;;;5059210;28;21110;-67
2023/04/11 14:47:50;;;;;;;4.13;3.78;;;;;;;;;;5057861;28;20306;-67